Jefferson, Wisconsin
Current Conditions -  °F | °C
As of 7:55 PM on Monday 24 Nov 2014 (Local Time) from KRYV Reporting Station
Light Snow Light Snow  
Wind Chill: 12°   Ceiling: 900
Heat Index: 24°   Visibility: 1.7mi
Dew Point: 24°   Wind: 15mph
Humidity: 97%   Direction: 250°WSW
Pressure: 29.62"   Gusts: 20mph
Location:  43°N, 88.81°W
Report Text: KRYV 250155Z AUTO 25013G17KT 1 3/4SM -SN BKN009 OVC016 M04/M05 A2962 RMK AO2 T10431047
Loading
Personal Weather Stations






























Interactive Weather Map New forecast layout! Learn more

10-Day Weather Forecast

Advertisements
Track Severe Weather on mobile